sensor_id;sensor_type;location;lat;lon;timestamp;temperature;humidity
7307;DHT22;3694;48.732;9.248;2023-02-01T00:01:43;2.80;99.90
7307;DHT22;3694;48.732;9.248;2023-02-01T00:04:09;2.70;99.90
7307;DHT22;3694;48.732;9.248;2023-02-01T00:06:34;2.70;99.90
7307;DHT22;3694;48.732;9.248;2023-02-01T00:09:00;2.70;99.90
7307;DHT22;3694;48.732;9.248;2023-02-01T00:11:26;2.70;99.90
7307;DHT22;3694;48.732;9.248;2023-02-01T00:13:52;2.70;99.90
7307;DHT22;3694;48.732;9.248;2023-02-01T00:16:20;2.70;99.90
7307;DHT22;3694;48.732;9.248;2023-02-01T00:18:48;2.60;99.90
7307;DHT22;3694;48.732;9.248;2023-02-01T00:21:16;2.60;99.90
7307;DHT22;3694;48.732;9.248;2023-02-01T00:23:43;2.60;99.90
7307;DHT22;3694;48.732;9.248;2023-02-01T00:26:34;2.70;99.90
7307;DHT22;3694;48.732;9.248;2023-02-01T00:29:01;2.60;99.90
7307;DHT22;3694;48.732;9.248;2023-02-01T00:31:27;2.70;99.90
7307;DHT22;3694;48.732;9.248;2023-02-01T00:33:52;2.70;99.90
7307;DHT22;3694;48.732;9.248;2023-02-01T00:36:18;2.70;99.90
7307;DHT22;3694;48.732;9.248;2023-02-01T00:38:44;2.70;99.90
7307;DHT22;3694;48.732;9.248;2023-02-01T00:41:18;2.70;99.90
7307;DHT22;3694;48.732;9.248;2023-02-01T00:43:44;2.70;99.90
7307;DHT22;3694;48.732;9.248;2023-02-01T00:46:11;2.70;99.90
7307;DHT22;3694;48.732;9.248;2023-02-01T00:48:37;2.70;99.90
7307;DHT22;3694;48.732;9.248;2023-02-01T00:51:05;2.70;99.90
7307;DHT22;3694;48.732;9.248;2023-02-01T00:53:32;2.70;99.90
7307;DHT22;3694;48.732;9.248;2023-02-01T00:55:58;2.70;99.90
7307;DHT22;3694;48.732;9.248;2023-02-01T00:58:24;2.70;99.90
7307;DHT22;3694;48.732;9.248;2023-02-01T01:03:26;3.10;99.90
7307;DHT22;3694;48.732;9.248;2023-02-01T01:05:56;2.70;99.90
7307;DHT22;3694;48.732;9.248;2023-02-01T01:08:22;2.70;99.90
7307;DHT22;3694;48.732;9.248;2023-02-01T01:10:47;2.70;99.90
7307;DHT22;3694;48.732;9.248;2023-02-01T01:13:14;2.70;99.90
7307;DHT22;3694;48.732;9.248;2023-02-01T01:15:40;2.70;99.90
7307;DHT22;3694;48.732;9.248;2023-02-01T01:18:06;2.70;99.90
7307;DHT22;3694;48.732;9.248;2023-02-01T01:20:37;2.80;99.90
7307;DHT22;3694;48.732;9.248;2023-02-01T01:23:03;2.80;99.90
7307;DHT22;3694;48.732;9.248;2023-02-01T01:25:29;2.80;99.90
7307;DHT22;3694;48.732;9.248;2023-02-01T01:27:55;2.80;99.90
7307;DHT22;3694;48.732;9.248;2023-02-01T01:30:20;2.80;99.90
7307;DHT22;3694;48.732;9.248;2023-02-01T01:32:46;2.70;99.90
7307;DHT22;3694;48.732;9.248;2023-02-01T01:35:12;2.70;99.90
7307;DHT22;3694;48.732;9.248;2023-02-01T01:37:37;2.70;99.90
7307;DHT22;3694;48.732;9.248;2023-02-01T01:40:04;2.70;99.90
7307;DHT22;3694;48.732;9.248;2023-02-01T01:42:30;2.70;99.90
7307;DHT22;3694;48.732;9.248;2023-02-01T01:45:07;2.70;99.90
7307;DHT22;3694;48.732;9.248;2023-02-01T01:47:44;2.80;99.90
7307;DHT22;3694;48.732;9.248;2023-02-01T01:50:14;2.80;99.90
7307;DHT22;3694;48.732;9.248;2023-02-01T01:52:44;2.80;99.90
7307;DHT22;3694;48.732;9.248;2023-02-01T01:55:13;2.80;99.90
7307;DHT22;3694;48.732;9.248;2023-02-01T01:57:43;2.80;99.90
7307;DHT22;3694;48.732;9.248;2023-02-01T02:00:13;2.80;99.90
7307;DHT22;3694;48.732;9.248;2023-02-01T02:02:40;2.80;99.90
7307;DHT22;3694;48.732;9.248;2023-02-01T02:05:07;2.80;99.90
7307;DHT22;3694;48.732;9.248;2023-02-01T02:07:36;2.80;99.90
7307;DHT22;3694;48.732;9.248;2023-02-01T02:10:08;2.80;99.90
7307;DHT22;3694;48.732;9.248;2023-02-01T02:12:38;2.80;99.90
7307;DHT22;3694;48.732;9.248;2023-02-01T02:15:05;2.80;99.90
7307;DHT22;3694;48.732;9.248;2023-02-01T02:17:39;2.80;99.90
7307;DHT22;3694;48.732;9.248;2023-02-01T02:28:56;2.90;99.90
7307;DHT22;3694;48.732;9.248;2023-02-01T02:37:00;3.00;99.90
7307;DHT22;3694;48.732;9.248;2023-02-01T02:39:55;3.00;99.90
7307;DHT22;3694;48.732;9.248;2023-02-01T02:42:49;3.00;99.90
7307;DHT22;3694;48.732;9.248;2023-02-01T02:46:09;3.00;99.90
7307;DHT22;3694;48.732;9.248;2023-02-01T02:49:43;3.00;99.90
7307;DHT22;3694;48.732;9.248;2023-02-01T02:51:56;3.00;99.90
7307;DHT22;3694;48.732;9.248;2023-02-01T02:54:46;3.00;99.90
7307;DHT22;3694;48.732;9.248;2023-02-01T02:57:19;3.10;99.90
7307;DHT22;3694;48.732;9.248;2023-02-01T03:00:08;3.10;99.90
7307;DHT22;3694;48.732;9.248;2023-02-01T03:02:53;3.00;99.90
7307;DHT22;3694;48.732;9.248;2023-02-01T03:05:41;3.10;99.90
7307;DHT22;3694;48.732;9.248;2023-02-01T03:08:12;3.10;99.90
7307;DHT22;3694;48.732;9.248;2023-02-01T03:10:43;3.00;99.90
7307;DHT22;3694;48.732;9.248;2023-02-01T03:16:18;3.00;99.90
7307;DHT22;3694;48.732;9.248;2023-02-01T03:19:01;3.00;99.90
7307;DHT22;3694;48.732;9.248;2023-02-01T03:21:35;2.90;99.90
7307;DHT22;3694;48.732;9.248;2023-02-01T03:24:07;2.90;99.90
7307;DHT22;3694;48.732;9.248;2023-02-01T03:26:37;2.90;99.90
7307;DHT22;3694;48.732;9.248;2023-02-01T03:29:33;2.90;99.90
7307;DHT22;3694;48.732;9.248;2023-02-01T03:32:02;2.90;99.90
7307;DHT22;3694;48.732;9.248;2023-02-01T03:34:27;2.90;99.90
7307;DHT22;3694;48.732;9.248;2023-02-01T03:37:04;3.00;99.90
7307;DHT22;3694;48.732;9.248;2023-02-01T03:39:48;3.00;99.90
7307;DHT22;3694;48.732;9.248;2023-02-01T03:42:21;3.00;99.90
7307;DHT22;3694;48.732;9.248;2023-02-01T03:45:13;3.00;99.90
7307;DHT22;3694;48.732;9.248;2023-02-01T03:47:45;3.10;99.90
7307;DHT22;3694;48.732;9.248;2023-02-01T03:50:15;2.90;99.90
7307;DHT22;3694;48.732;9.248;2023-02-01T03:52:44;2.90;99.90
7307;DHT22;3694;48.732;9.248;2023-02-01T03:55:14;2.90;99.90
7307;DHT22;3694;48.732;9.248;2023-02-01T03:57:44;2.90;99.90
7307;DHT22;3694;48.732;9.248;2023-02-01T04:00:21;2.90;99.90
7307;DHT22;3694;48.732;9.248;2023-02-01T04:02:47;2.90;99.90
7307;DHT22;3694;48.732;9.248;2023-02-01T04:05:13;2.90;99.90
7307;DHT22;3694;48.732;9.248;2023-02-01T04:07:38;3.00;99.90
7307;DHT22;3694;48.732;9.248;2023-02-01T04:10:04;3.00;99.90
7307;DHT22;3694;48.732;9.248;2023-02-01T04:12:30;3.00;99.90
7307;DHT22;3694;48.732;9.248;2023-02-01T04:14:55;3.00;99.90
7307;DHT22;3694;48.732;9.248;2023-02-01T04:17:21;2.90;99.90
7307;DHT22;3694;48.732;9.248;2023-02-01T04:19:46;3.00;99.90
7307;DHT22;3694;48.732;9.248;2023-02-01T04:22:12;3.00;99.90
7307;DHT22;3694;48.732;9.248;2023-02-01T04:24:38;3.00;99.90
7307;DHT22;3694;48.732;9.248;2023-02-01T04:27:04;3.00;99.90
7307;DHT22;3694;48.732;9.248;2023-02-01T04:29:29;3.00;99.90
7307;DHT22;3694;48.732;9.248;2023-02-01T04:31:55;3.00;99.90
7307;DHT22;3694;48.732;9.248;2023-02-01T04:34:20;3.00;99.90
7307;DHT22;3694;48.732;9.248;2023-02-01T04:36:48;3.10;99.90
7307;DHT22;3694;48.732;9.248;2023-02-01T04:39:13;3.10;99.90
7307;DHT22;3694;48.732;9.248;2023-02-01T04:41:39;3.20;99.90
7307;DHT22;3694;48.732;9.248;2023-02-01T04:44:05;3.20;99.90
7307;DHT22;3694;48.732;9.248;2023-02-01T04:46:30;3.10;99.90
7307;DHT22;3694;48.732;9.248;2023-02-01T04:48:56;3.20;99.90
7307;DHT22;3694;48.732;9.248;2023-02-01T04:51:21;3.10;99.90
7307;DHT22;3694;48.732;9.248;2023-02-01T04:53:47;3.10;99.90
7307;DHT22;3694;48.732;9.248;2023-02-01T04:56:13;3.10;99.90
7307;DHT22;3694;48.732;9.248;2023-02-01T04:58:38;3.10;99.90
7307;DHT22;3694;48.732;9.248;2023-02-01T05:01:05;3.10;99.90
7307;DHT22;3694;48.732;9.248;2023-02-01T05:03:32;3.20;99.90
7307;DHT22;3694;48.732;9.248;2023-02-01T05:05:58;3.20;99.90
7307;DHT22;3694;48.732;9.248;2023-02-01T05:08:24;3.20;99.90
7307;DHT22;3694;48.732;9.248;2023-02-01T05:10:51;3.10;99.90
7307;DHT22;3694;48.732;9.248;2023-02-01T05:13:16;3.20;99.90
7307;DHT22;3694;48.732;9.248;2023-02-01T05:16:01;3.20;99.90
7307;DHT22;3694;48.732;9.248;2023-02-01T05:18:26;3.30;99.90
7307;DHT22;3694;48.732;9.248;2023-02-01T05:20:52;3.20;99.90
7307;DHT22;3694;48.732;9.248;2023-02-01T05:23:17;3.10;99.90
7307;DHT22;3694;48.732;9.248;2023-02-01T05:25:43;3.10;99.90
7307;DHT22;3694;48.732;9.248;2023-02-01T05:28:09;3.10;99.90
7307;DHT22;3694;48.732;9.248;2023-02-01T05:30:34;3.20;99.90
7307;DHT22;3694;48.732;9.248;2023-02-01T05:33:01;3.20;99.90
7307;DHT22;3694;48.732;9.248;2023-02-01T05:35:27;3.20;99.90
7307;DHT22;3694;48.732;9.248;2023-02-01T05:37:52;3.20;99.90
7307;DHT22;3694;48.732;9.248;2023-02-01T05:40:18;3.20;99.90
7307;DHT22;3694;48.732;9.248;2023-02-01T05:42:43;3.20;99.90
7307;DHT22;3694;48.732;9.248;2023-02-01T05:45:09;3.20;99.90
7307;DHT22;3694;48.732;9.248;2023-02-01T05:47:35;3.20;99.90
7307;DHT22;3694;48.732;9.248;2023-02-01T05:50:00;3.10;99.90
7307;DHT22;3694;48.732;9.248;2023-02-01T05:52:26;3.20;99.90
7307;DHT22;3694;48.732;9.248;2023-02-01T05:54:51;3.20;99.90
7307;DHT22;3694;48.732;9.248;2023-02-01T05:57:18;3.20;99.90
7307;DHT22;3694;48.732;9.248;2023-02-01T05:59:49;3.30;99.90
7307;DHT22;3694;48.732;9.248;2023-02-01T06:02:15;3.20;99.90
7307;DHT22;3694;48.732;9.248;2023-02-01T06:04:41;3.20;99.90
7307;DHT22;3694;48.732;9.248;2023-02-01T06:07:08;3.20;99.90
7307;DHT22;3694;48.732;9.248;2023-02-01T06:09:34;3.20;99.90
7307;DHT22;3694;48.732;9.248;2023-02-01T06:12:00;3.20;99.90
7307;DHT22;3694;48.732;9.248;2023-02-01T06:14:29;3.20;99.90
7307;DHT22;3694;48.732;9.248;2023-02-01T06:16:55;3.10;99.90
7307;DHT22;3694;48.732;9.248;2023-02-01T06:19:21;3.10;99.90
7307;DHT22;3694;48.732;9.248;2023-02-01T06:21:47;3.10;99.90
7307;DHT22;3694;48.732;9.248;2023-02-01T06:24:13;3.10;99.90
7307;DHT22;3694;48.732;9.248;2023-02-01T06:26:38;3.20;99.90
7307;DHT22;3694;48.732;9.248;2023-02-01T06:29:05;3.10;99.90
7307;DHT22;3694;48.732;9.248;2023-02-01T06:31:32;3.10;99.90
7307;DHT22;3694;48.732;9.248;2023-02-01T06:33:57;3.10;99.90
7307;DHT22;3694;48.732;9.248;2023-02-01T06:36:23;3.10;99.90
7307;DHT22;3694;48.732;9.248;2023-02-01T06:38:49;3.10;99.90
7307;DHT22;3694;48.732;9.248;2023-02-01T06:41:14;3.10;99.90
7307;DHT22;3694;48.732;9.248;2023-02-01T06:43:40;3.10;99.90
7307;DHT22;3694;48.732;9.248;2023-02-01T06:46:08;3.00;99.90
7307;DHT22;3694;48.732;9.248;2023-02-01T06:48:34;3.10;99.90
7307;DHT22;3694;48.732;9.248;2023-02-01T06:51:00;3.10;99.90
7307;DHT22;3694;48.732;9.248;2023-02-01T06:53:26;3.10;99.90
7307;DHT22;3694;48.732;9.248;2023-02-01T06:56:02;3.10;99.90
7307;DHT22;3694;48.732;9.248;2023-02-01T06:58:32;3.30;99.90
7307;DHT22;3694;48.732;9.248;2023-02-01T07:01:04;3.10;99.90
7307;DHT22;3694;48.732;9.248;2023-02-01T07:03:29;3.20;99.90
7307;DHT22;3694;48.732;9.248;2023-02-01T07:05:56;3.20;99.90
7307;DHT22;3694;48.732;9.248;2023-02-01T07:08:29;3.30;99.90
7307;DHT22;3694;48.732;9.248;2023-02-01T07:10:55;3.30;99.90
7307;DHT22;3694;48.732;9.248;2023-02-01T07:13:21;3.30;99.90
7307;DHT22;3694;48.732;9.248;2023-02-01T07:15:47;3.30;99.90
7307;DHT22;3694;48.732;9.248;2023-02-01T07:18:13;3.30;99.90
7307;DHT22;3694;48.732;9.248;2023-02-01T07:20:39;3.30;99.90
7307;DHT22;3694;48.732;9.248;2023-02-01T07:23:05;3.30;99.90
7307;DHT22;3694;48.732;9.248;2023-02-01T07:25:31;3.40;99.90
7307;DHT22;3694;48.732;9.248;2023-02-01T07:27:57;3.30;99.90
7307;DHT22;3694;48.732;9.248;2023-02-01T07:30:23;3.30;99.90
7307;DHT22;3694;48.732;9.248;2023-02-01T07:32:48;3.40;99.90
7307;DHT22;3694;48.732;9.248;2023-02-01T07:35:14;3.40;99.90
7307;DHT22;3694;48.732;9.248;2023-02-01T07:37:40;3.40;99.90
7307;DHT22;3694;48.732;9.248;2023-02-01T07:40:06;3.50;99.90
7307;DHT22;3694;48.732;9.248;2023-02-01T07:42:32;3.50;99.90
7307;DHT22;3694;48.732;9.248;2023-02-01T07:44:58;3.60;99.90
7307;DHT22;3694;48.732;9.248;2023-02-01T07:47:24;3.60;99.90
7307;DHT22;3694;48.732;9.248;2023-02-01T07:49:49;3.60;99.90
7307;DHT22;3694;48.732;9.248;2023-02-01T07:52:15;3.70;99.90
7307;DHT22;3694;48.732;9.248;2023-02-01T07:54:44;3.80;99.90
7307;DHT22;3694;48.732;9.248;2023-02-01T07:57:09;3.80;99.90
7307;DHT22;3694;48.732;9.248;2023-02-01T07:59:37;3.90;99.90
7307;DHT22;3694;48.732;9.248;2023-02-01T08:02:22;3.90;99.90
7307;DHT22;3694;48.732;9.248;2023-02-01T08:04:48;4.00;99.90
7307;DHT22;3694;48.732;9.248;2023-02-01T08:07:14;4.00;99.90
7307;DHT22;3694;48.732;9.248;2023-02-01T08:09:39;4.00;99.90
7307;DHT22;3694;48.732;9.248;2023-02-01T08:12:05;4.00;99.90
7307;DHT22;3694;48.732;9.248;2023-02-01T08:14:30;4.00;99.90
7307;DHT22;3694;48.732;9.248;2023-02-01T08:16:56;4.00;99.90
7307;DHT22;3694;48.732;9.248;2023-02-01T08:19:21;4.00;99.90
7307;DHT22;3694;48.732;9.248;2023-02-01T08:21:47;4.10;99.90
7307;DHT22;3694;48.732;9.248;2023-02-01T08:24:14;4.00;99.90
7307;DHT22;3694;48.732;9.248;2023-02-01T08:26:39;4.00;99.90
7307;DHT22;3694;48.732;9.248;2023-02-01T08:29:07;4.00;99.90
7307;DHT22;3694;48.732;9.248;2023-02-01T08:31:33;4.10;99.90
7307;DHT22;3694;48.732;9.248;2023-02-01T08:34:01;4.10;99.90
7307;DHT22;3694;48.732;9.248;2023-02-01T08:36:30;4.10;99.90
7307;DHT22;3694;48.732;9.248;2023-02-01T08:38:56;4.10;99.90
7307;DHT22;3694;48.732;9.248;2023-02-01T08:41:24;4.10;99.90
7307;DHT22;3694;48.732;9.248;2023-02-01T08:43:51;4.20;99.90
7307;DHT22;3694;48.732;9.248;2023-02-01T08:46:18;4.30;99.90
7307;DHT22;3694;48.732;9.248;2023-02-01T08:48:45;4.40;99.90
7307;DHT22;3694;48.732;9.248;2023-02-01T08:51:13;4.60;99.90
7307;DHT22;3694;48.732;9.248;2023-02-01T08:53:39;4.80;99.90
7307;DHT22;3694;48.732;9.248;2023-02-01T08:56:07;4.90;99.90
7307;DHT22;3694;48.732;9.248;2023-02-01T08:58:33;5.00;99.90
7307;DHT22;3694;48.732;9.248;2023-02-01T09:01:03;5.00;99.90
7307;DHT22;3694;48.732;9.248;2023-02-01T09:03:29;5.00;99.90
7307;DHT22;3694;48.732;9.248;2023-02-01T09:06:06;4.90;99.90
7307;DHT22;3694;48.732;9.248;2023-02-01T09:08:33;4.90;99.90
7307;DHT22;3694;48.732;9.248;2023-02-01T09:11:00;4.80;99.90
7307;DHT22;3694;48.732;9.248;2023-02-01T09:13:26;4.80;99.90
7307;DHT22;3694;48.732;9.248;2023-02-01T09:15:51;4.70;99.90
7307;DHT22;3694;48.732;9.248;2023-02-01T09:18:17;4.70;99.90
7307;DHT22;3694;48.732;9.248;2023-02-01T09:20:42;4.70;99.90
7307;DHT22;3694;48.732;9.248;2023-02-01T09:23:08;4.60;99.90
7307;DHT22;3694;48.732;9.248;2023-02-01T09:25:36;4.50;99.90
7307;DHT22;3694;48.732;9.248;2023-02-01T09:28:01;4.40;99.90
7307;DHT22;3694;48.732;9.248;2023-02-01T09:30:29;4.30;99.90
7307;DHT22;3694;48.732;9.248;2023-02-01T09:32:54;4.30;99.90
7307;DHT22;3694;48.732;9.248;2023-02-01T09:35:20;4.60;99.90
7307;DHT22;3694;48.732;9.248;2023-02-01T09:37:45;4.30;99.90
7307;DHT22;3694;48.732;9.248;2023-02-01T09:40:14;4.30;99.90
7307;DHT22;3694;48.732;9.248;2023-02-01T09:47:39;4.60;99.90
7307;DHT22;3694;48.732;9.248;2023-02-01T09:50:14;4.90;99.90
7307;DHT22;3694;48.732;9.248;2023-02-01T09:55:41;5.30;99.90
7307;DHT22;3694;48.732;9.248;2023-02-01T09:58:36;5.50;99.90
7307;DHT22;3694;48.732;9.248;2023-02-01T10:01:04;5.50;99.90
7307;DHT22;3694;48.732;9.248;2023-02-01T10:03:33;5.60;99.90
7307;DHT22;3694;48.732;9.248;2023-02-01T10:06:23;5.50;99.90
7307;DHT22;3694;48.732;9.248;2023-02-01T10:25:41;5.10;99.90
7307;DHT22;3694;48.732;9.248;2023-02-01T10:28:14;5.10;99.90
7307;DHT22;3694;48.732;9.248;2023-02-01T10:30:44;5.20;99.90
7307;DHT22;3694;48.732;9.248;2023-02-01T10:33:23;5.10;99.90
7307;DHT22;3694;48.732;9.248;2023-02-01T10:36:23;5.20;99.90
7307;DHT22;3694;48.732;9.248;2023-02-01T10:38:50;5.20;99.90
7307;DHT22;3694;48.732;9.248;2023-02-01T10:41:20;5.30;99.90
7307;DHT22;3694;48.732;9.248;2023-02-01T10:43:48;5.50;99.90
7307;DHT22;3694;48.732;9.248;2023-02-01T10:46:16;5.60;99.90
7307;DHT22;3694;48.732;9.248;2023-02-01T10:48:42;5.60;99.60
7307;DHT22;3694;48.732;9.248;2023-02-01T10:53:42;5.60;99.50
7307;DHT22;3694;48.732;9.248;2023-02-01T10:56:10;5.70;99.70
7307;DHT22;3694;48.732;9.248;2023-02-01T10:58:44;5.70;99.30
7307;DHT22;3694;48.732;9.248;2023-02-01T11:01:20;5.80;98.50
7307;DHT22;3694;48.732;9.248;2023-02-01T11:04:01;5.80;98.70
7307;DHT22;3694;48.732;9.248;2023-02-01T11:06:33;5.80;98.30
7307;DHT22;3694;48.732;9.248;2023-02-01T11:11:32;5.80;97.00
7307;DHT22;3694;48.732;9.248;2023-02-01T11:14:00;5.90;96.90
7307;DHT22;3694;48.732;9.248;2023-02-01T11:16:34;5.90;96.50
7307;DHT22;3694;48.732;9.248;2023-02-01T11:19:00;5.90;96.10
7307;DHT22;3694;48.732;9.248;2023-02-01T11:21:27;6.00;96.10
7307;DHT22;3694;48.732;9.248;2023-02-01T11:23:53;6.20;96.00
7307;DHT22;3694;48.732;9.248;2023-02-01T11:26:26;6.10;95.70
7307;DHT22;3694;48.732;9.248;2023-02-01T11:29:13;6.00;95.10
7307;DHT22;3694;48.732;9.248;2023-02-01T11:31:40;5.90;95.50
7307;DHT22;3694;48.732;9.248;2023-02-01T11:34:15;5.80;95.60
7307;DHT22;3694;48.732;9.248;2023-02-01T11:36:41;5.80;95.10
7307;DHT22;3694;48.732;9.248;2023-02-01T11:39:18;5.80;95.10
7307;DHT22;3694;48.732;9.248;2023-02-01T11:42:01;5.70;95.00
7307;DHT22;3694;48.732;9.248;2023-02-01T11:44:37;5.80;95.00
7307;DHT22;3694;48.732;9.248;2023-02-01T11:47:29;5.90;95.10
7307;DHT22;3694;48.732;9.248;2023-02-01T11:50:02;6.10;95.20
7307;DHT22;3694;48.732;9.248;2023-02-01T11:55:49;6.40;94.90
7307;DHT22;3694;48.732;9.248;2023-02-01T12:00:48;6.40;95.00
7307;DHT22;3694;48.732;9.248;2023-02-01T12:06:21;6.40;94.50
7307;DHT22;3694;48.732;9.248;2023-02-01T12:08:55;6.50;94.20
7307;DHT22;3694;48.732;9.248;2023-02-01T12:25:07;6.00;94.80
7307;DHT22;3694;48.732;9.248;2023-02-01T12:27:42;6.00;94.60
7307;DHT22;3694;48.732;9.248;2023-02-01T12:33:22;6.10;94.30
7307;DHT22;3694;48.732;9.248;2023-02-01T12:36:10;5.90;94.40
7307;DHT22;3694;48.732;9.248;2023-02-01T12:41:56;5.60;94.60
7307;DHT22;3694;48.732;9.248;2023-02-01T12:47:09;5.50;94.60
7307;DHT22;3694;48.732;9.248;2023-02-01T12:49:52;5.60;94.30
7307;DHT22;3694;48.732;9.248;2023-02-01T12:52:30;5.50;94.70
7307;DHT22;3694;48.732;9.248;2023-02-01T12:55:09;5.60;94.50
7307;DHT22;3694;48.732;9.248;2023-02-01T12:57:43;5.60;94.60
7307;DHT22;3694;48.732;9.248;2023-02-01T13:00:29;5.60;94.60
7307;DHT22;3694;48.732;9.248;2023-02-01T13:06:15;5.40;94.80
7307;DHT22;3694;48.732;9.248;2023-02-01T13:11:38;5.30;94.90
7307;DHT22;3694;48.732;9.248;2023-02-01T13:16:56;5.20;95.10
7307;DHT22;3694;48.732;9.248;2023-02-01T13:21:56;5.20;95.40
7307;DHT22;3694;48.732;9.248;2023-02-01T13:24:42;5.20;95.40
7307;DHT22;3694;48.732;9.248;2023-02-01T13:27:13;5.00;95.10
7307;DHT22;3694;48.732;9.248;2023-02-01T13:29:46;5.20;95.40
7307;DHT22;3694;48.732;9.248;2023-02-01T13:37:39;5.20;95.50
7307;DHT22;3694;48.732;9.248;2023-02-01T13:43:05;5.30;95.20
7307;DHT22;3694;48.732;9.248;2023-02-01T13:45:35;5.30;95.30
7307;DHT22;3694;48.732;9.248;2023-02-01T13:48:04;5.30;95.50
7307;DHT22;3694;48.732;9.248;2023-02-01T13:50:33;5.40;95.60
7307;DHT22;3694;48.732;9.248;2023-02-01T13:55:41;5.20;95.60
7307;DHT22;3694;48.732;9.248;2023-02-01T13:58:17;5.10;95.70
7307;DHT22;3694;48.732;9.248;2023-02-01T14:00:43;5.10;95.80
7307;DHT22;3694;48.732;9.248;2023-02-01T14:03:12;5.10;96.10
7307;DHT22;3694;48.732;9.248;2023-02-01T14:09:05;5.00;96.00
7307;DHT22;3694;48.732;9.248;2023-02-01T14:11:31;5.00;96.20
7307;DHT22;3694;48.732;9.248;2023-02-01T14:19:39;5.00;96.60
7307;DHT22;3694;48.732;9.248;2023-02-01T14:24:41;4.90;96.60
7307;DHT22;3694;48.732;9.248;2023-02-01T14:27:20;5.00;96.80
7307;DHT22;3694;48.732;9.248;2023-02-01T14:29:53;5.00;96.60
7307;DHT22;3694;48.732;9.248;2023-02-01T14:32:43;5.00;96.40
7307;DHT22;3694;48.732;9.248;2023-02-01T14:35:26;5.00;96.30
7307;DHT22;3694;48.732;9.248;2023-02-01T14:38:00;5.00;96.60
7307;DHT22;3694;48.732;9.248;2023-02-01T14:40:28;5.00;96.60
7307;DHT22;3694;48.732;9.248;2023-02-01T14:42:55;5.00;96.40
7307;DHT22;3694;48.732;9.248;2023-02-01T14:47:52;4.90;96.40
7307;DHT22;3694;48.732;9.248;2023-02-01T15:01:33;4.80;96.50
7307;DHT22;3694;48.732;9.248;2023-02-01T15:04:05;4.80;96.40
7307;DHT22;3694;48.732;9.248;2023-02-01T15:09:04;4.90;96.20
7307;DHT22;3694;48.732;9.248;2023-02-01T15:12:00;4.90;96.00
7307;DHT22;3694;48.732;9.248;2023-02-01T15:14:27;5.00;95.90
7307;DHT22;3694;48.732;9.248;2023-02-01T15:16:53;5.30;96.10
7307;DHT22;3694;48.732;9.248;2023-02-01T15:19:21;5.00;96.10
7307;DHT22;3694;48.732;9.248;2023-02-01T15:21:50;5.00;96.00
7307;DHT22;3694;48.732;9.248;2023-02-01T15:24:23;5.00;96.00
7307;DHT22;3694;48.732;9.248;2023-02-01T15:26:50;5.00;96.00
7307;DHT22;3694;48.732;9.248;2023-02-01T15:29:16;4.90;96.10
7307;DHT22;3694;48.732;9.248;2023-02-01T15:31:48;4.90;96.10
7307;DHT22;3694;48.732;9.248;2023-02-01T15:34:14;5.00;96.10
7307;DHT22;3694;48.732;9.248;2023-02-01T15:36:40;5.00;96.10
7307;DHT22;3694;48.732;9.248;2023-02-01T15:39:19;5.00;96.30
7307;DHT22;3694;48.732;9.248;2023-02-01T15:41:51;5.00;96.50
7307;DHT22;3694;48.732;9.248;2023-02-01T15:46:55;4.90;96.40
7307;DHT22;3694;48.732;9.248;2023-02-01T15:49:32;4.90;96.30
7307;DHT22;3694;48.732;9.248;2023-02-01T15:52:02;5.00;96.40
7307;DHT22;3694;48.732;9.248;2023-02-01T15:54:41;4.90;96.00
7307;DHT22;3694;48.732;9.248;2023-02-01T15:57:09;5.00;95.80
7307;DHT22;3694;48.732;9.248;2023-02-01T15:59:43;5.00;95.50
7307;DHT22;3694;48.732;9.248;2023-02-01T16:02:34;5.00;95.60
7307;DHT22;3694;48.732;9.248;2023-02-01T16:05:02;5.00;95.90
7307;DHT22;3694;48.732;9.248;2023-02-01T16:07:30;4.90;95.80
7307;DHT22;3694;48.732;9.248;2023-02-01T16:09:58;4.90;96.00
7307;DHT22;3694;48.732;9.248;2023-02-01T16:12:45;5.20;95.80
7307;DHT22;3694;48.732;9.248;2023-02-01T16:15:11;4.90;95.70
7307;DHT22;3694;48.732;9.248;2023-02-01T16:17:37;5.00;96.00
7307;DHT22;3694;48.732;9.248;2023-02-01T16:20:06;4.80;95.90
7307;DHT22;3694;48.732;9.248;2023-02-01T16:22:32;4.80;96.20
7307;DHT22;3694;48.732;9.248;2023-02-01T16:24:57;4.80;96.30
7307;DHT22;3694;48.732;9.248;2023-02-01T16:27:25;4.70;96.40
7307;DHT22;3694;48.732;9.248;2023-02-01T16:29:51;4.60;96.50
7307;DHT22;3694;48.732;9.248;2023-02-01T16:32:20;4.70;96.70
7307;DHT22;3694;48.732;9.248;2023-02-01T16:34:47;4.60;96.70
7307;DHT22;3694;48.732;9.248;2023-02-01T16:37:29;4.60;96.70
7307;DHT22;3694;48.732;9.248;2023-02-01T16:39:57;4.60;96.80
7307;DHT22;3694;48.732;9.248;2023-02-01T16:42:23;4.60;96.70
7307;DHT22;3694;48.732;9.248;2023-02-01T16:44:48;4.60;96.90
7307;DHT22;3694;48.732;9.248;2023-02-01T16:47:20;4.60;96.90
7307;DHT22;3694;48.732;9.248;2023-02-01T16:49:46;4.50;97.10
7307;DHT22;3694;48.732;9.248;2023-02-01T16:52:18;4.50;97.30
7307;DHT22;3694;48.732;9.248;2023-02-01T16:54:45;4.50;97.20
7307;DHT22;3694;48.732;9.248;2023-02-01T16:57:15;4.50;97.20
7307;DHT22;3694;48.732;9.248;2023-02-01T16:59:41;4.50;97.40
7307;DHT22;3694;48.732;9.248;2023-02-01T17:02:25;4.40;97.60
7307;DHT22;3694;48.732;9.248;2023-02-01T17:04:52;4.40;97.50
7307;DHT22;3694;48.732;9.248;2023-02-01T17:07:18;4.40;97.70
7307;DHT22;3694;48.732;9.248;2023-02-01T17:09:50;4.30;97.70
7307;DHT22;3694;48.732;9.248;2023-02-01T17:12:27;4.30;97.80
7307;DHT22;3694;48.732;9.248;2023-02-01T17:14:54;4.60;98.00
7307;DHT22;3694;48.732;9.248;2023-02-01T17:17:21;4.20;97.90
7307;DHT22;3694;48.732;9.248;2023-02-01T17:19:48;4.20;97.80
7307;DHT22;3694;48.732;9.248;2023-02-01T17:22:17;4.20;97.80
7307;DHT22;3694;48.732;9.248;2023-02-01T17:24:43;4.20;97.90
7307;DHT22;3694;48.732;9.248;2023-02-01T17:27:09;4.20;97.80
7307;DHT22;3694;48.732;9.248;2023-02-01T17:29:35;4.20;97.80
7307;DHT22;3694;48.732;9.248;2023-02-01T17:32:01;4.30;97.70
7307;DHT22;3694;48.732;9.248;2023-02-01T17:34:27;4.30;97.60
7307;DHT22;3694;48.732;9.248;2023-02-01T17:36:53;4.30;97.60
7307;DHT22;3694;48.732;9.248;2023-02-01T17:39:18;4.30;97.70
7307;DHT22;3694;48.732;9.248;2023-02-01T17:42:11;4.30;97.40
7307;DHT22;3694;48.732;9.248;2023-02-01T17:44:36;4.30;97.60
7307;DHT22;3694;48.732;9.248;2023-02-01T17:47:02;4.30;97.60
7307;DHT22;3694;48.732;9.248;2023-02-01T17:49:28;4.30;97.50
7307;DHT22;3694;48.732;9.248;2023-02-01T17:51:54;4.30;97.70
7307;DHT22;3694;48.732;9.248;2023-02-01T17:54:20;4.30;97.70
7307;DHT22;3694;48.732;9.248;2023-02-01T17:56:45;4.20;97.80
7307;DHT22;3694;48.732;9.248;2023-02-01T17:59:13;4.20;97.90
7307;DHT22;3694;48.732;9.248;2023-02-01T18:01:40;4.20;97.90
7307;DHT22;3694;48.732;9.248;2023-02-01T18:04:10;4.20;97.90
7307;DHT22;3694;48.732;9.248;2023-02-01T18:06:36;4.20;97.90
7307;DHT22;3694;48.732;9.248;2023-02-01T18:09:01;4.20;97.90
7307;DHT22;3694;48.732;9.248;2023-02-01T18:11:27;4.20;98.00
7307;DHT22;3694;48.732;9.248;2023-02-01T18:13:57;4.20;98.00
7307;DHT22;3694;48.732;9.248;2023-02-01T18:16:28;4.20;98.00
7307;DHT22;3694;48.732;9.248;2023-02-01T18:18:54;4.10;98.10
7307;DHT22;3694;48.732;9.248;2023-02-01T18:21:28;4.10;98.10
7307;DHT22;3694;48.732;9.248;2023-02-01T18:23:54;4.10;98.10
7307;DHT22;3694;48.732;9.248;2023-02-01T18:26:20;4.20;98.10
7307;DHT22;3694;48.732;9.248;2023-02-01T18:28:45;4.20;98.10
7307;DHT22;3694;48.732;9.248;2023-02-01T18:31:28;4.30;98.00
7307;DHT22;3694;48.732;9.248;2023-02-01T18:33:56;4.30;98.00
7307;DHT22;3694;48.732;9.248;2023-02-01T18:36:22;4.30;98.00
7307;DHT22;3694;48.732;9.248;2023-02-01T18:38:48;4.30;98.10
7307;DHT22;3694;48.732;9.248;2023-02-01T18:41:15;4.20;98.10
7307;DHT22;3694;48.732;9.248;2023-02-01T18:43:41;4.30;98.10
7307;DHT22;3694;48.732;9.248;2023-02-01T18:46:09;4.20;98.00
7307;DHT22;3694;48.732;9.248;2023-02-01T18:48:35;4.30;97.90